sensor_id;sensor_type;location;lat;lon;timestamp;pressure;altitude;pressure_sealevel;temperature;humidity
32873;BME280;19224;52.462;16.898;2023-02-17T00:00:00;100633.12;;;7.42;100.00
32873;BME280;19224;52.462;16.898;2023-02-17T00:02:31;100631.00;;;7.37;100.00
32873;BME280;19224;52.462;16.898;2023-02-17T00:05:02;100629.31;;;7.34;100.00
32873;BME280;19224;52.462;16.898;2023-02-17T00:07:33;100632.91;;;7.33;100.00
32873;BME280;19224;52.462;16.898;2023-02-17T00:10:05;100625.86;;;7.29;100.00
32873;BME280;19224;52.462;16.898;2023-02-17T00:12:36;100619.55;;;7.32;100.00
32873;BME280;19224;52.462;16.898;2023-02-17T00:15:07;100622.25;;;7.30;100.00
32873;BME280;19224;52.462;16.898;2023-02-17T00:17:38;100611.48;;;7.33;100.00
32873;BME280;19224;52.462;16.898;2023-02-17T00:20:09;100611.03;;;7.32;100.00
32873;BME280;19224;52.462;16.898;2023-02-17T00:22:40;100614.58;;;7.34;100.00
32873;BME280;19224;52.462;16.898;2023-02-17T00:25:10;100612.31;;;7.35;100.00
32873;BME280;19224;52.462;16.898;2023-02-17T00:27:40;100605.61;;;7.35;100.00
32873;BME280;19224;52.462;16.898;2023-02-17T00:30:11;100600.77;;;7.33;100.00
32873;BME280;19224;52.462;16.898;2023-02-17T00:32:41;100602.52;;;7.34;100.00
32873;BME280;19224;52.462;16.898;2023-02-17T00:35:12;100607.40;;;7.35;100.00
32873;BME280;19224;52.462;16.898;2023-02-17T00:37:42;100603.44;;;7.33;100.00
32873;BME280;19224;52.462;16.898;2023-02-17T00:40:14;100594.54;;;7.31;100.00
32873;BME280;19224;52.462;16.898;2023-02-17T00:42:45;100594.13;;;7.30;100.00
32873;BME280;19224;52.462;16.898;2023-02-17T00:45:17;100602.99;;;7.32;100.00
32873;BME280;19224;52.462;16.898;2023-02-17T00:47:47;100600.82;;;7.30;100.00
32873;BME280;19224;52.462;16.898;2023-02-17T00:50:18;100598.20;;;7.29;100.00
32873;BME280;19224;52.462;16.898;2023-02-17T00:52:48;100601.84;;;7.26;100.00
32873;BME280;19224;52.462;16.898;2023-02-17T00:55:18;100596.20;;;7.19;100.00
32873;BME280;19224;52.462;16.898;2023-02-17T00:57:49;100593.65;;;7.15;100.00
32873;BME280;19224;52.462;16.898;2023-02-17T01:00:20;100592.78;;;7.14;100.00
32873;BME280;19224;52.462;16.898;2023-02-17T01:02:50;100589.69;;;7.13;100.00
32873;BME280;19224;52.462;16.898;2023-02-17T01:05:21;100590.61;;;7.12;100.00
32873;BME280;19224;52.462;16.898;2023-02-17T01:07:51;100591.06;;;7.12;100.00
32873;BME280;19224;52.462;16.898;2023-02-17T01:10:22;100594.23;;;7.10;100.00
32873;BME280;19224;52.462;16.898;2023-02-17T01:12:52;100592.01;;;7.09;100.00
32873;BME280;19224;52.462;16.898;2023-02-17T01:15:22;100584.57;;;7.04;100.00
32873;BME280;19224;52.462;16.898;2023-02-17T01:17:53;100576.98;;;7.04;100.00
32873;BME280;19224;52.462;16.898;2023-02-17T01:20:23;100568.09;;;7.03;100.00
32873;BME280;19224;52.462;16.898;2023-02-17T01:22:53;100566.75;;;7.03;100.00
32873;BME280;19224;52.462;16.898;2023-02-17T01:25:24;100559.64;;;7.03;100.00
32873;BME280;19224;52.462;16.898;2023-02-17T01:27:54;100559.27;;;6.98;100.00
32873;BME280;19224;52.462;16.898;2023-02-17T01:30:25;100551.25;;;6.98;100.00
32873;BME280;19224;52.462;16.898;2023-02-17T01:32:55;100544.64;;;6.96;100.00
32873;BME280;19224;52.462;16.898;2023-02-17T01:35:26;100538.87;;;6.95;100.00
32873;BME280;19224;52.462;16.898;2023-02-17T01:37:57;100545.14;;;6.94;100.00
32873;BME280;19224;52.462;16.898;2023-02-17T01:40:27;100541.96;;;6.96;100.00
32873;BME280;19224;52.462;16.898;2023-02-17T01:42:58;100544.82;;;6.90;100.00
32873;BME280;19224;52.462;16.898;2023-02-17T01:45:35;100541.27;;;6.88;100.00
32873;BME280;19224;52.462;16.898;2023-02-17T01:48:11;100539.88;;;6.91;100.00
32873;BME280;19224;52.462;16.898;2023-02-17T01:51:02;100538.77;;;6.82;100.00
32873;BME280;19224;52.462;16.898;2023-02-17T01:53:45;100527.98;;;6.85;100.00
32873;BME280;19224;52.462;16.898;2023-02-17T01:56:15;100514.71;;;6.80;100.00
32873;BME280;19224;52.462;16.898;2023-02-17T02:01:35;100521.77;;;6.84;100.00
32873;BME280;19224;52.462;16.898;2023-02-17T02:04:07;100521.49;;;6.77;100.00
32873;BME280;19224;52.462;16.898;2023-02-17T02:06:41;100511.23;;;6.77;100.00
32873;BME280;19224;52.462;16.898;2023-02-17T02:09:33;100508.08;;;6.79;100.00
32873;BME280;19224;52.462;16.898;2023-02-17T02:12:15;100505.41;;;6.79;100.00
32873;BME280;19224;52.462;16.898;2023-02-17T02:14:46;100500.11;;;6.76;100.00
32873;BME280;19224;52.462;16.898;2023-02-17T02:29:15;100488.03;;;6.77;100.00
32873;BME280;19224;52.462;16.898;2023-02-17T02:37:58;100495.27;;;6.74;100.00
32873;BME280;19224;52.462;16.898;2023-02-17T02:40:32;100489.77;;;6.80;100.00
32873;BME280;19224;52.462;16.898;2023-02-17T02:43:03;100486.25;;;6.78;100.00
32873;BME280;19224;52.462;16.898;2023-02-17T02:45:34;100475.27;;;6.87;100.00
32873;BME280;19224;52.462;16.898;2023-02-17T02:48:05;100472.72;;;6.82;100.00
32873;BME280;19224;52.462;16.898;2023-02-17T02:50:56;100462.10;;;6.79;100.00
32873;BME280;19224;52.462;16.898;2023-02-17T03:02:14;100463.23;;;6.87;100.00
32873;BME280;19224;52.462;16.898;2023-02-17T03:05:01;100462.81;;;6.86;100.00
32873;BME280;19224;52.462;16.898;2023-02-17T03:07:45;100459.21;;;6.87;100.00
32873;BME280;19224;52.462;16.898;2023-02-17T03:10:15;100456.30;;;6.80;100.00
32873;BME280;19224;52.462;16.898;2023-02-17T03:12:45;100453.86;;;6.87;100.00
32873;BME280;19224;52.462;16.898;2023-02-17T03:15:31;100447.11;;;6.90;100.00
32873;BME280;19224;52.462;16.898;2023-02-17T03:18:03;100436.11;;;6.84;100.00
32873;BME280;19224;52.462;16.898;2023-02-17T03:20:38;100445.80;;;6.88;100.00
32873;BME280;19224;52.462;16.898;2023-02-17T03:23:09;100449.84;;;6.87;100.00
32873;BME280;19224;52.462;16.898;2023-02-17T03:25:39;100452.88;;;6.91;100.00
32873;BME280;19224;52.462;16.898;2023-02-17T03:28:10;100448.45;;;6.90;100.00
32873;BME280;19224;52.462;16.898;2023-02-17T03:30:41;100443.15;;;6.87;100.00
32873;BME280;19224;52.462;16.898;2023-02-17T03:33:12;100436.05;;;6.86;100.00
32873;BME280;19224;52.462;16.898;2023-02-17T03:35:42;100435.62;;;6.85;100.00
32873;BME280;19224;52.462;16.898;2023-02-17T03:38:13;100438.40;;;6.82;100.00
32873;BME280;19224;52.462;16.898;2023-02-17T03:40:43;100432.53;;;6.84;100.00
32873;BME280;19224;52.462;16.898;2023-02-17T03:43:16;100426.23;;;6.86;100.00
32873;BME280;19224;52.462;16.898;2023-02-17T03:45:46;100425.69;;;6.90;100.00
32873;BME280;19224;52.462;16.898;2023-02-17T03:48:17;100418.20;;;6.86;100.00
32873;BME280;19224;52.462;16.898;2023-02-17T03:50:47;100422.66;;;6.86;100.00
32873;BME280;19224;52.462;16.898;2023-02-17T03:53:18;100419.16;;;6.84;100.00
32873;BME280;19224;52.462;16.898;2023-02-17T03:55:49;100421.51;;;6.80;100.00
32873;BME280;19224;52.462;16.898;2023-02-17T03:58:20;100421.03;;;6.80;100.00
32873;BME280;19224;52.462;16.898;2023-02-17T04:00:50;100410.30;;;6.82;100.00
32873;BME280;19224;52.462;16.898;2023-02-17T04:03:21;100404.17;;;6.77;100.00
32873;BME280;19224;52.462;16.898;2023-02-17T04:05:52;100402.39;;;6.77;100.00
32873;BME280;19224;52.462;16.898;2023-02-17T04:08:23;100408.66;;;6.76;100.00
32873;BME280;19224;52.462;16.898;2023-02-17T04:10:57;100405.70;;;6.71;100.00
32873;BME280;19224;52.462;16.898;2023-02-17T04:13:28;100404.87;;;6.69;100.00
32873;BME280;19224;52.462;16.898;2023-02-17T04:15:59;100395.09;;;6.68;100.00
32873;BME280;19224;52.462;16.898;2023-02-17T04:18:34;100394.61;;;6.68;100.00
32873;BME280;19224;52.462;16.898;2023-02-17T04:21:05;100400.59;;;6.62;100.00
32873;BME280;19224;52.462;16.898;2023-02-17T04:23:37;100396.61;;;6.60;100.00
32873;BME280;19224;52.462;16.898;2023-02-17T04:26:08;100399.67;;;6.63;100.00
32873;BME280;19224;52.462;16.898;2023-02-17T04:28:41;100387.81;;;6.57;100.00
32873;BME280;19224;52.462;16.898;2023-02-17T04:31:12;100393.64;;;6.55;100.00
32873;BME280;19224;52.462;16.898;2023-02-17T04:33:42;100390.96;;;6.55;100.00
32873;BME280;19224;52.462;16.898;2023-02-17T04:36:13;100390.02;;;6.57;100.00
32873;BME280;19224;52.462;16.898;2023-02-17T04:38:44;100382.87;;;6.58;100.00
32873;BME280;19224;52.462;16.898;2023-02-17T04:41:15;100383.80;;;6.57;100.00
32873;BME280;19224;52.462;16.898;2023-02-17T04:43:45;100377.11;;;6.57;100.00
32873;BME280;19224;52.462;16.898;2023-02-17T04:46:16;100371.79;;;6.55;100.00
32873;BME280;19224;52.462;16.898;2023-02-17T04:48:46;100363.45;;;6.51;100.00
32873;BME280;19224;52.462;16.898;2023-02-17T04:51:17;100364.27;;;6.53;100.00
32873;BME280;19224;52.462;16.898;2023-02-17T04:53:48;100362.52;;;6.52;100.00
32873;BME280;19224;52.462;16.898;2023-02-17T04:56:18;100364.15;;;6.58;100.00
32873;BME280;19224;52.462;16.898;2023-02-17T04:58:49;100359.46;;;6.50;100.00
32873;BME280;19224;52.462;16.898;2023-02-17T05:01:19;100350.70;;;6.45;100.00
32873;BME280;19224;52.462;16.898;2023-02-17T05:03:50;100352.36;;;6.49;100.00
32873;BME280;19224;52.462;16.898;2023-02-17T05:06:20;100345.34;;;6.45;100.00
32873;BME280;19224;52.462;16.898;2023-02-17T05:08:51;100343.91;;;6.48;100.00
32873;BME280;19224;52.462;16.898;2023-02-17T05:11:22;100336.43;;;6.44;100.00
32873;BME280;19224;52.462;16.898;2023-02-17T05:13:52;100332.70;;;6.50;100.00
32873;BME280;19224;52.462;16.898;2023-02-17T05:16:23;100328.44;;;6.43;100.00
32873;BME280;19224;52.462;16.898;2023-02-17T05:18:54;100341.75;;;6.46;100.00
32873;BME280;19224;52.462;16.898;2023-02-17T05:21:24;100343.09;;;6.46;100.00
32873;BME280;19224;52.462;16.898;2023-02-17T05:23:55;100342.90;;;6.52;100.00
32873;BME280;19224;52.462;16.898;2023-02-17T05:26:25;100342.48;;;6.51;100.00
32873;BME280;19224;52.462;16.898;2023-02-17T05:28:57;100335.70;;;6.54;100.00
32873;BME280;19224;52.462;16.898;2023-02-17T05:31:27;100337.33;;;6.45;100.00
32873;BME280;19224;52.462;16.898;2023-02-17T05:33:58;100333.25;;;6.46;100.00
32873;BME280;19224;52.462;16.898;2023-02-17T05:36:29;100328.69;;;6.50;100.00
32873;BME280;19224;52.462;16.898;2023-02-17T05:39:00;100322.96;;;6.47;100.00
32873;BME280;19224;52.462;16.898;2023-02-17T05:41:30;100323.38;;;6.48;100.00
32873;BME280;19224;52.462;16.898;2023-02-17T05:44:01;100317.90;;;6.53;100.00
32873;BME280;19224;52.462;16.898;2023-02-17T05:46:31;100317.36;;;6.56;100.00
32873;BME280;19224;52.462;16.898;2023-02-17T05:49:02;100308.13;;;6.52;100.00
32873;BME280;19224;52.462;16.898;2023-02-17T05:51:32;100304.30;;;6.60;100.00
32873;BME280;19224;52.462;16.898;2023-02-17T05:54:04;100306.69;;;6.55;100.00
32873;BME280;19224;52.462;16.898;2023-02-17T05:56:34;100315.16;;;6.56;100.00
32873;BME280;19224;52.462;16.898;2023-02-17T05:59:05;100308.09;;;6.53;100.00
32873;BME280;19224;52.462;16.898;2023-02-17T06:01:36;100304.62;;;6.50;100.00
32873;BME280;19224;52.462;16.898;2023-02-17T06:04:06;100303.28;;;6.50;100.00
32873;BME280;19224;52.462;16.898;2023-02-17T06:06:37;100309.05;;;6.51;100.00
32873;BME280;19224;52.462;16.898;2023-02-17T06:09:07;100304.94;;;6.54;100.00
32873;BME280;19224;52.462;16.898;2023-02-17T06:11:38;100301.11;;;6.48;100.00
32873;BME280;19224;52.462;16.898;2023-02-17T06:14:08;100300.09;;;6.52;100.00
32873;BME280;19224;52.462;16.898;2023-02-17T06:16:40;100291.02;;;6.57;100.00
32873;BME280;19224;52.462;16.898;2023-02-17T06:19:10;100296.78;;;6.58;100.00
32873;BME280;19224;52.462;16.898;2023-02-17T06:21:41;100291.71;;;6.64;100.00
32873;BME280;19224;52.462;16.898;2023-02-17T06:24:12;100288.88;;;6.54;100.00
32873;BME280;19224;52.462;16.898;2023-02-17T06:26:42;100293.18;;;6.59;100.00
32873;BME280;19224;52.462;16.898;2023-02-17T06:29:13;100293.28;;;6.56;100.00
32873;BME280;19224;52.462;16.898;2023-02-17T06:31:43;100295.09;;;6.56;100.00
32873;BME280;19224;52.462;16.898;2023-02-17T06:34:14;100294.48;;;6.61;100.00
32873;BME280;19224;52.462;16.898;2023-02-17T06:36:45;100301.34;;;6.55;100.00
32873;BME280;19224;52.462;16.898;2023-02-17T06:39:16;100289.36;;;6.53;100.00
32873;BME280;19224;52.462;16.898;2023-02-17T06:41:47;100293.31;;;6.55;100.00
32873;BME280;19224;52.462;16.898;2023-02-17T06:44:17;100296.75;;;6.60;100.00
32873;BME280;19224;52.462;16.898;2023-02-17T06:46:48;100285.28;;;6.55;100.00
32873;BME280;19224;52.462;16.898;2023-02-17T06:49:19;100282.55;;;6.58;100.00
32873;BME280;19224;52.462;16.898;2023-02-17T06:51:49;100283.60;;;6.52;100.00
32873;BME280;19224;52.462;16.898;2023-02-17T06:54:20;100272.11;;;6.49;100.00
32873;BME280;19224;52.462;16.898;2023-02-17T06:56:51;100272.48;;;6.51;100.00
32873;BME280;19224;52.462;16.898;2023-02-17T06:59:21;100277.97;;;6.47;100.00
32873;BME280;19224;52.462;16.898;2023-02-17T07:01:52;100275.61;;;6.51;100.00
32873;BME280;19224;52.462;16.898;2023-02-17T07:04:22;100278.16;;;6.55;100.00
32873;BME280;19224;52.462;16.898;2023-02-17T07:06:53;100281.88;;;6.50;100.00
32873;BME280;19224;52.462;16.898;2023-02-17T07:09:23;100279.11;;;6.53;100.00
32873;BME280;19224;52.462;16.898;2023-02-17T07:11:54;100273.69;;;6.56;100.00
32873;BME280;19224;52.462;16.898;2023-02-17T07:14:26;100267.00;;;6.56;100.00
32873;BME280;19224;52.462;16.898;2023-02-17T07:16:57;100269.89;;;6.63;100.00
32873;BME280;19224;52.462;16.898;2023-02-17T07:19:28;100274.73;;;6.65;100.00
32873;BME280;19224;52.462;16.898;2023-02-17T07:21:59;100276.08;;;6.65;100.00
32873;BME280;19224;52.462;16.898;2023-02-17T07:24:31;100271.14;;;6.66;100.00
32873;BME280;19224;52.462;16.898;2023-02-17T07:27:04;100258.03;;;6.71;100.00
32873;BME280;19224;52.462;16.898;2023-02-17T07:29:37;100259.99;;;6.81;100.00
32873;BME280;19224;52.462;16.898;2023-02-17T07:32:07;100264.70;;;6.87;100.00
32873;BME280;19224;52.462;16.898;2023-02-17T07:34:38;100256.77;;;6.84;100.00
32873;BME280;19224;52.462;16.898;2023-02-17T07:37:09;100260.51;;;6.79;100.00
32873;BME280;19224;52.462;16.898;2023-02-17T07:39:39;100258.05;;;6.86;100.00
32873;BME280;19224;52.462;16.898;2023-02-17T07:42:11;100260.82;;;6.83;100.00
32873;BME280;19224;52.462;16.898;2023-02-17T07:44:41;100257.48;;;6.89;100.00
32873;BME280;19224;52.462;16.898;2023-02-17T07:47:12;100257.77;;;6.95;100.00
32873;BME280;19224;52.462;16.898;2023-02-17T07:49:42;100253.23;;;6.97;100.00
32873;BME280;19224;52.462;16.898;2023-02-17T07:52:17;100250.11;;;6.97;100.00
32873;BME280;19224;52.462;16.898;2023-02-17T07:54:48;100244.20;;;7.01;100.00
32873;BME280;19224;52.462;16.898;2023-02-17T07:57:18;100250.69;;;7.06;100.00
32873;BME280;19224;52.462;16.898;2023-02-17T07:59:49;100249.08;;;7.01;100.00
32873;BME280;19224;52.462;16.898;2023-02-17T08:02:19;100246.70;;;7.05;100.00
32873;BME280;19224;52.462;16.898;2023-02-17T08:04:51;100237.78;;;7.06;100.00
32873;BME280;19224;52.462;16.898;2023-02-17T08:07:22;100247.08;;;7.07;100.00
32873;BME280;19224;52.462;16.898;2023-02-17T08:09:53;100238.88;;;7.13;100.00
32873;BME280;19224;52.462;16.898;2023-02-17T08:12:41;100238.31;;;7.17;100.00
32873;BME280;19224;52.462;16.898;2023-02-17T08:15:20;100235.41;;;7.10;100.00
32873;BME280;19224;52.462;16.898;2023-02-17T08:17:50;100232.52;;;7.16;100.00
32873;BME280;19224;52.462;16.898;2023-02-17T08:20:21;100235.27;;;7.14;100.00
32873;BME280;19224;52.462;16.898;2023-02-17T08:22:52;100235.67;;;7.15;100.00
32873;BME280;19224;52.462;16.898;2023-02-17T08:25:23;100228.69;;;7.24;100.00
32873;BME280;19224;52.462;16.898;2023-02-17T08:27:53;100232.44;;;7.19;100.00
32873;BME280;19224;52.462;16.898;2023-02-17T08:30:24;100221.47;;;7.13;100.00
32873;BME280;19224;52.462;16.898;2023-02-17T08:32:55;100228.17;;;7.26;100.00
32873;BME280;19224;52.462;16.898;2023-02-17T08:35:26;100217.56;;;7.23;100.00
32873;BME280;19224;52.462;16.898;2023-02-17T08:37:58;100223.59;;;7.17;100.00
32873;BME280;19224;52.462;16.898;2023-02-17T08:40:29;100218.12;;;7.20;100.00
32873;BME280;19224;52.462;16.898;2023-02-17T08:42:59;100217.64;;;7.20;100.00
32873;BME280;19224;52.462;16.898;2023-02-17T08:45:30;100208.75;;;7.20;100.00
32873;BME280;19224;52.462;16.898;2023-02-17T08:48:00;100202.20;;;7.28;100.00
32873;BME280;19224;52.462;16.898;2023-02-17T08:50:32;100204.70;;;7.34;100.00
32873;BME280;19224;52.462;16.898;2023-02-17T08:53:03;100198.19;;;7.41;100.00
32873;BME280;19224;52.462;16.898;2023-02-17T08:55:35;100195.51;;;7.41;100.00
32873;BME280;19224;52.462;16.898;2023-02-17T08:58:05;100195.91;;;7.42;100.00
32873;BME280;19224;52.462;16.898;2023-02-17T09:00:36;100193.72;;;7.42;100.00
32873;BME280;19224;52.462;16.898;2023-02-17T09:03:07;100194.24;;;7.40;100.00
32873;BME280;19224;52.462;16.898;2023-02-17T09:05:38;100182.52;;;7.42;100.00
32873;BME280;19224;52.462;16.898;2023-02-17T09:08:09;100185.94;;;7.47;100.00
32873;BME280;19224;52.462;16.898;2023-02-17T09:10:40;100172.54;;;7.47;100.00
32873;BME280;19224;52.462;16.898;2023-02-17T09:13:10;100180.06;;;7.49;100.00
32873;BME280;19224;52.462;16.898;2023-02-17T09:15:41;100177.27;;;7.52;100.00
32873;BME280;19224;52.462;16.898;2023-02-17T09:18:12;100182.98;;;7.55;100.00
32873;BME280;19224;52.462;16.898;2023-02-17T09:20:42;100169.96;;;7.57;100.00
32873;BME280;19224;52.462;16.898;2023-02-17T09:23:13;100176.95;;;7.61;100.00
32873;BME280;19224;52.462;16.898;2023-02-17T09:25:44;100169.45;;;7.71;100.00
32873;BME280;19224;52.462;16.898;2023-02-17T09:28:15;100169.69;;;7.65;100.00
32873;BME280;19224;52.462;16.898;2023-02-17T09:30:46;100157.06;;;7.68;100.00
32873;BME280;19224;52.462;16.898;2023-02-17T09:33:16;100159.73;;;7.68;100.00
32873;BME280;19224;52.462;16.898;2023-02-17T09:35:47;100163.64;;;7.71;100.00
32873;BME280;19224;52.462;16.898;2023-02-17T09:38:18;100151.83;;;7.77;100.00
32873;BME280;19224;52.462;16.898;2023-02-17T09:40:50;100146.30;;;7.81;100.00
32873;BME280;19224;52.462;16.898;2023-02-17T09:43:27;100136.52;;;7.80;100.00
32873;BME280;19224;52.462;16.898;2023-02-17T09:46:03;100134.84;;;7.89;100.00
32873;BME280;19224;52.462;16.898;2023-02-17T09:48:34;100132.05;;;7.92;100.00
32873;BME280;19224;52.462;16.898;2023-02-17T09:51:16;100130.77;;;8.02;100.00
32873;BME280;19224;52.462;16.898;2023-02-17T09:54:00;100126.87;;;8.11;100.00
32873;BME280;19224;52.462;16.898;2023-02-17T09:56:31;100129.09;;;8.11;100.00
32873;BME280;19224;52.462;16.898;2023-02-17T09:59:18;100118.70;;;8.02;100.00
32873;BME280;19224;52.462;16.898;2023-02-17T10:01:48;100117.20;;;8.07;100.00
32873;BME280;19224;52.462;16.898;2023-02-17T10:04:27;100101.80;;;8.12;100.00
32873;BME280;19224;52.462;16.898;2023-02-17T10:10:02;100101.44;;;8.22;100.00
32873;BME280;19224;52.462;16.898;2023-02-17T10:12:29;100100.78;;;8.27;100.00
32873;BME280;19224;52.462;16.898;2023-02-17T10:15:20;100103.99;;;8.25;100.00
32873;BME280;19224;52.462;16.898;2023-02-17T10:21:04;100094.25;;;8.34;100.00
32873;BME280;19224;52.462;16.898;2023-02-17T10:23:34;100096.80;;;8.37;100.00
32873;BME280;19224;52.462;16.898;2023-02-17T10:26:42;100089.52;;;8.41;100.00
32873;BME280;19224;52.462;16.898;2023-02-17T10:32:24;100087.73;;;8.51;100.00
32873;BME280;19224;52.462;16.898;2023-02-17T10:35:14;100080.48;;;8.53;100.00
32873;BME280;19224;52.462;16.898;2023-02-17T10:40:26;100063.75;;;8.58;100.00
32873;BME280;19224;52.462;16.898;2023-02-17T10:43:01;100061.69;;;8.65;100.00
32873;BME280;19224;52.462;16.898;2023-02-17T10:45:36;100059.99;;;8.62;100.00
32873;BME280;19224;52.462;16.898;2023-02-17T10:50:46;100044.11;;;8.68;100.00
32873;BME280;19224;52.462;16.898;2023-02-17T10:53:24;100035.73;;;8.75;100.00
32873;BME280;19224;52.462;16.898;2023-02-17T10:56:09;100020.02;;;8.76;100.00
32873;BME280;19224;52.462;16.898;2023-02-17T10:58:49;100020.98;;;8.85;100.00
32873;BME280;19224;52.462;16.898;2023-02-17T11:01:18;100007.42;;;8.88;100.00
32873;BME280;19224;52.462;16.898;2023-02-17T11:04:07;100000.70;;;8.88;100.00
32873;BME280;19224;52.462;16.898;2023-02-17T11:06:43;99987.43;;;8.95;100.00
32873;BME280;19224;52.462;16.898;2023-02-17T11:09:26;99983.00;;;8.94;100.00
32873;BME280;19224;52.462;16.898;2023-02-17T11:12:03;99969.03;;;8.96;100.00
32873;BME280;19224;52.462;16.898;2023-02-17T11:14:35;99963.66;;;8.96;100.00
32873;BME280;19224;52.462;16.898;2023-02-17T11:17:34;99966.55;;;9.02;100.00
32873;BME280;19224;52.462;16.898;2023-02-17T11:23:04;99950.92;;;9.11;100.00
32873;BME280;19224;52.462;16.898;2023-02-17T11:25:33;99937.55;;;9.10;100.00
32873;BME280;19224;52.462;16.898;2023-02-17T11:28:19;99932.97;;;9.12;100.00
32873;BME280;19224;52.462;16.898;2023-02-17T11:30:52;99919.80;;;9.16;100.00
32873;BME280;19224;52.462;16.898;2023-02-17T11:33:33;99912.22;;;9.15;100.00
32873;BME280;19224;52.462;16.898;2023-02-17T11:36:06;99906.30;;;9.17;100.00
32873;BME280;19224;52.462;16.898;2023-02-17T11:38:44;99893.61;;;9.21;100.00
32873;BME280;19224;52.462;16.898;2023-02-17T11:41:16;99889.52;;;9.22;100.00
32873;BME280;19224;52.462;16.898;2023-02-17T11:43:57;99888.69;;;9.20;100.00
32873;BME280;19224;52.462;16.898;2023-02-17T11:46:45;99874.05;;;9.27;100.00
32873;BME280;19224;52.462;16.898;2023-02-17T11:49:28;99873.89;;;9.30;100.00
32873;BME280;19224;52.462;16.898;2023-02-17T11:57:52;99859.48;;;9.41;100.00
32873;BME280;19224;52.462;16.898;2023-02-17T12:00:31;99853.92;;;9.36;100.00
32873;BME280;19224;52.462;16.898;2023-02-17T12:09:20;99840.61;;;9.43;100.00
32873;BME280;19224;52.462;16.898;2023-02-17T12:18:38;99816.24;;;9.37;100.00
32873;BME280;19224;52.462;16.898;2023-02-17T12:33:01;99789.38;;;9.37;100.00
32873;BME280;19224;52.462;16.898;2023-02-17T12:35:54;99790.28;;;9.46;100.00
32873;BME280;19224;52.462;16.898;2023-02-17T12:38:34;99781.70;;;9.38;100.00
32873;BME280;19224;52.462;16.898;2023-02-17T12:41:13;99775.78;;;9.40;100.00
32873;BME280;19224;52.462;16.898;2023-02-17T12:43:58;99768.84;;;9.44;100.00
32873;BME280;19224;52.462;16.898;2023-02-17T12:46:40;99767.83;;;9.47;100.00
32873;BME280;19224;52.462;16.898;2023-02-17T12:49:33;99752.72;;;9.53;100.00
32873;BME280;19224;52.462;16.898;2023-02-17T12:52:13;99748.47;;;9.57;100.00
32873;BME280;19224;52.462;16.898;2023-02-17T12:54:59;99738.60;;;9.58;100.00
32873;BME280;19224;52.462;16.898;2023-02-17T12:57:55;99723.10;;;9.63;100.00
32873;BME280;19224;52.462;16.898;2023-02-17T13:00:49;99724.84;;;9.64;100.00
32873;BME280;19224;52.462;16.898;2023-02-17T13:02:59;99712.84;;;9.62;100.00
32873;BME280;19224;52.462;16.898;2023-02-17T13:05:43;99710.67;;;9.60;100.00
32873;BME280;19224;52.462;16.898;2023-02-17T13:11:29;99696.94;;;9.66;100.00
32873;BME280;19224;52.462;16.898;2023-02-17T13:14:27;99685.62;;;9.60;100.00
32873;BME280;19224;52.462;16.898;2023-02-17T13:16:57;99682.94;;;9.68;100.00
32873;BME280;19224;52.462;16.898;2023-02-17T13:19:31;99684.38;;;9.67;100.00
32873;BME280;19224;52.462;16.898;2023-02-17T13:22:03;99673.69;;;9.65;100.00
32873;BME280;19224;52.462;16.898;2023-02-17T13:24:39;99670.12;;;9.65;100.00
32873;BME280;19224;52.462;16.898;2023-02-17T13:32:39;99636.91;;;9.66;100.00
32873;BME280;19224;52.462;16.898;2023-02-17T13:37:56;99622.61;;;9.65;100.00
32873;BME280;19224;52.462;16.898;2023-02-17T13:40:41;99614.22;;;9.63;100.00
32873;BME280;19224;52.462;16.898;2023-02-17T13:43:18;99604.64;;;9.66;100.00
32873;BME280;19224;52.462;16.898;2023-02-17T13:46:01;99595.01;;;9.62;100.00
32873;BME280;19224;52.462;16.898;2023-02-17T13:48:35;99580.45;;;9.66;100.00
32873;BME280;19224;52.462;16.898;2023-02-17T13:51:20;99575.63;;;9.64;100.00
32873;BME280;19224;52.462;16.898;2023-02-17T13:53:41;99573.98;;;9.70;100.00
32873;BME280;19224;52.462;16.898;2023-02-17T13:56:27;99569.23;;;9.66;100.00
32873;BME280;19224;52.462;16.898;2023-02-17T13:59:14;99564.31;;;9.66;100.00
32873;BME280;19224;52.462;16.898;2023-02-17T14:01:47;99556.89;;;9.71;100.00
32873;BME280;19224;52.462;16.898;2023-02-17T14:04:29;99550.17;;;9.71;100.00
32873;BME280;19224;52.462;16.898;2023-02-17T14:07:02;99558.09;;;9.65;100.00
32873;BME280;19224;52.462;16.898;2023-02-17T14:09:34;99541.56;;;9.64;100.00
32873;BME280;19224;52.462;16.898;2023-02-17T14:12:14;99536.75;;;9.62;100.00
32873;BME280;19224;52.462;16.898;2023-02-17T14:14:39;99528.66;;;9.71;100.00
32873;BME280;19224;52.462;16.898;2023-02-17T14:17:31;99529.52;;;9.71;100.00
32873;BME280;19224;52.462;16.898;2023-02-17T14:20:03;99518.47;;;9.69;100.00
32873;BME280;19224;52.462;16.898;2023-02-17T14:22:35;99517.77;;;9.65;100.00
32873;BME280;19224;52.462;16.898;2023-02-17T14:25:13;99504.15;;;9.68;100.00
32873;BME280;19224;52.462;16.898;2023-02-17T14:27:47;99509.77;;;9.64;100.00
32873;BME280;19224;52.462;16.898;2023-02-17T14:30:38;99504.08;;;9.70;100.00
32873;BME280;19224;52.462;16.898;2023-02-17T14:36:01;99495.84;;;9.73;100.00
32873;BME280;19224;52.462;16.898;2023-02-17T14:38:40;99491.17;;;9.76;100.00
32873;BME280;19224;52.462;16.898;2023-02-17T14:41:08;99480.80;;;9.77;100.00
32873;BME280;19224;52.462;16.898;2023-02-17T14:43:39;99473.20;;;9.77;100.00
32873;BME280;19224;52.462;16.898;2023-02-17T14:46:09;99480.94;;;9.83;100.00